Time;durP1;ratioP1;P1;durP2;ratioP2;P2;SDS_P1;SDS_P2;PMS_P1;PMS_P2;Temp;Humidity;BMP_temperature;BMP_pressure;BME280_temperature;BME280_humidity;BME280_pressure;Samples;Min_cycle;Max_cycle;Signal;HPM_P1;HPM_P2
2021/12/27 00:01:05;;;;;;;;;34.50;30.75;;;;;1.26;100.00;100150.38;4978918;28;11743;-70
2021/12/27 00:03:32;;;;;;;;;41.25;30.75;;;;;1.31;100.00;100145.44;4986855;28;11692;-70
2021/12/27 00:05:59;;;;;;;;;29.25;29.00;;;;;1.30;100.00;100146.44;4987619;28;11739;-71
2021/12/27 00:08:25;;;;;;;;;32.00;25.50;;;;;1.34;100.00;100143.31;4986670;28;12336;-68
2021/12/27 00:10:52;;;;;;;;;30.00;23.75;;;;;1.39;100.00;100145.53;4986703;28;11627;-72
2021/12/27 00:13:19;;;;;;;;;34.00;30.00;;;;;1.35;100.00;100141.47;4966165;28;11757;-71
2021/12/27 00:15:45;;;;;;;;;34.00;30.75;;;;;1.34;100.00;100140.66;4986502;28;11619;-71
2021/12/27 00:18:12;;;;;;;;;38.50;30.75;;;;;1.36;100.00;100140.50;4986167;28;11714;-71
2021/12/27 00:20:38;;;;;;;;;34.50;30.00;;;;;1.33;100.00;100141.63;4987055;28;11711;-69
2021/12/27 00:23:05;;;;;;;;;32.00;26.00;;;;;1.36;100.00;100138.66;4985158;28;11599;-71
2021/12/27 00:25:31;;;;;;;;;31.75;30.00;;;;;1.34;100.00;100132.66;4986379;28;11596;-71
2021/12/27 00:27:58;;;;;;;;;44.00;35.50;;;;;1.41;100.00;100132.88;4986009;28;11591;-71
2021/12/27 00:30:24;;;;;;;;;35.25;31.25;;;;;1.44;100.00;100135.25;5000601;28;11697;-70
2021/12/27 00:32:51;;;;;;;;;30.25;25.00;;;;;1.49;100.00;100125.00;4986757;28;11614;-70
2021/12/27 00:35:18;;;;;;;;;28.25;24.00;;;;;1.50;100.00;100121.34;5001378;28;11620;-71
2021/12/27 00:37:45;;;;;;;;;36.50;33.00;;;;;1.50;100.00;100134.69;4986055;28;11749;-68
2021/12/27 00:40:13;;;;;;;;;34.25;27.75;;;;;1.51;100.00;100123.03;4985212;28;11639;-70
2021/12/27 00:42:40;;;;;;;;;33.25;30.75;;;;;1.45;100.00;100118.25;5000943;28;11709;-70
2021/12/27 00:45:08;;;;;;;;;28.50;26.50;;;;;1.48;100.00;100115.28;4985530;28;11700;-69
2021/12/27 00:47:35;;;;;;;;;31.25;26.50;;;;;1.52;100.00;100109.53;4986341;28;11718;-70
2021/12/27 00:50:03;;;;;;;;;30.50;28.00;;;;;1.48;100.00;100108.13;5002360;28;11636;-70
2021/12/27 00:52:32;;;;;;;;;35.25;31.50;;;;;1.51;100.00;100105.19;4985986;28;11592;-70
2021/12/27 00:54:59;;;;;;;;;35.75;28.25;;;;;1.49;100.00;100101.84;4985398;28;11716;-71
2021/12/27 00:57:26;;;;;;;;;32.50;27.00;;;;;1.48;100.00;100099.28;4984851;28;11600;-71
2021/12/27 00:59:52;;;;;;;;;36.00;30.75;;;;;1.53;100.00;100097.88;4983813;28;11603;-71
2021/12/27 01:02:19;;;;;;;;;30.75;25.00;;;;;1.52;100.00;100098.88;4984166;28;11704;-71
2021/12/27 01:04:45;;;;;;;;;29.75;26.25;;;;;1.58;100.00;100094.75;4984483;28;12329;-69
2021/12/27 01:07:12;;;;;;;;;37.00;30.50;;;;;1.52;100.00;100098.03;4984744;28;11739;-69
2021/12/27 01:12:24;;;;;;;;;33.75;33.50;;;;;1.57;100.00;100094.91;4984340;28;11731;-71
2021/12/27 01:15:08;;;;;;;;;40.75;33.75;;;;;1.58;100.00;100088.59;4981284;28;11090;-72
2021/12/27 01:17:37;;;;;;;;;33.25;30.25;;;;;1.60;100.00;100092.78;4980370;28;11629;-71
2021/12/27 01:20:06;;;;;;;;;37.25;32.50;;;;;1.58;100.00;100086.75;4999080;28;11694;-71
2021/12/27 01:22:33;;;;;;;;;32.25;28.25;;;;;1.64;100.00;100079.97;4984168;28;12459;-71
2021/12/27 01:24:59;;;;;;;;;35.25;29.50;;;;;1.66;100.00;100081.50;4982075;28;11578;-71
2021/12/27 01:27:26;;;;;;;;;27.00;26.50;;;;;1.68;100.00;100068.84;4998912;28;11601;-71
2021/12/27 01:29:53;;;;;;;;;32.25;31.00;;;;;1.70;100.00;100068.69;4998599;28;11698;-70
2021/12/27 01:32:20;;;;;;;;;29.75;23.75;;;;;1.71;100.00;100068.53;4985528;28;11659;-71
2021/12/27 01:34:46;;;;;;;;;27.50;25.00;;;;;1.71;100.00;100076.53;4981226;28;11609;-71
2021/12/27 01:37:13;;;;;;;;;27.25;24.00;;;;;1.71;100.00;100067.72;4977525;28;11728;-67
2021/12/27 01:39:39;;;;;;;;;29.25;26.00;;;;;1.77;100.00;100065.28;4977309;28;11603;-70
2021/12/27 01:42:06;;;;;;;;;32.25;27.25;;;;;1.76;100.00;100062.78;4985533;28;11623;-70
2021/12/27 01:44:32;;;;;;;;;36.50;25.00;;;;;1.77;100.00;100065.28;4983956;28;12113;-70
2021/12/27 01:47:00;;;;;;;;;39.75;30.75;;;;;1.73;100.00;100063.88;4984882;28;11619;-70
2021/12/27 01:49:26;;;;;;;;;27.25;23.00;;;;;1.78;100.00;100066.97;4982732;28;11624;-71
2021/12/27 01:51:53;;;;;;;;;34.25;28.25;;;;;1.83;100.00;100064.69;4983269;28;11703;-70
2021/12/27 01:54:20;;;;;;;;;27.50;24.50;;;;;1.79;100.00;100059.81;4985321;28;12366;-71
2021/12/27 01:56:46;;;;;;;;;42.00;31.25;;;;;1.76;100.00;100060.09;4982759;28;11733;-71
2021/12/27 01:59:13;;;;;;;;;33.50;30.00;;;;;1.74;100.00;100064.75;4981979;28;11698;-70
2021/12/27 02:01:39;;;;;;;;;36.50;29.00;;;;;1.83;100.00;100053.16;4984834;28;11613;-70
2021/12/27 02:04:06;;;;;;;;;28.50;24.50;;;;;1.85;100.00;100051.19;4982745;28;11670;-71
2021/12/27 02:06:32;;;;;;;;;32.75;29.50;;;;;1.83;100.00;100054.00;4985331;28;11613;-71
2021/12/27 02:08:59;;;;;;;;;38.25;30.75;;;;;1.81;100.00;100056.00;4984929;28;11737;-68
2021/12/27 02:11:26;;;;;;;;;34.00;29.00;;;;;1.80;100.00;100053.47;5000551;28;11615;-69
2021/12/27 02:13:52;;;;;;;;;34.25;29.00;;;;;1.90;100.00;100056.06;4983573;28;11619;-71
2021/12/27 02:16:21;;;;;;;;;25.25;24.25;;;;;1.92;100.00;100062.91;4985404;28;11582;-71
2021/12/27 02:18:49;;;;;;;;;28.25;22.50;;;;;1.92;100.00;100060.25;4984009;28;11698;-71
2021/12/27 02:21:17;;;;;;;;;22.75;19.25;;;;;1.94;100.00;100057.41;4982687;28;11667;-70
2021/12/27 02:23:44;;;;;;;;;12.75;12.00;;;;;1.96;100.00;100055.44;4982160;28;12478;-70
2021/12/27 02:26:11;;;;;;;;;30.25;21.75;;;;;1.94;100.00;100046.75;4980635;28;11729;-71
2021/12/27 02:28:38;;;;;;;;;25.50;20.75;;;;;1.94;100.00;100042.25;4981438;28;11703;-71
2021/12/27 02:31:05;;;;;;;;;35.75;32.00;;;;;1.92;100.00;100040.72;4980808;28;11725;-71
2021/12/27 02:33:34;;;;;;;;;33.50;31.50;;;;;1.97;100.00;100041.09;4996268;28;12962;-71
2021/12/27 02:36:01;;;;;;;;;32.75;25.25;;;;;1.97;100.00;100043.75;4981498;28;12409;-72
2021/12/27 02:38:31;;;;;;;;;29.75;23.75;;;;;1.99;100.00;100036.47;4982658;28;11764;-72
2021/12/27 02:40:58;;;;;;;;;25.00;23.50;;;;;2.01;100.00;100039.81;4981554;28;11767;-71
2021/12/27 02:43:28;;;;;;;;;36.00;26.75;;;;;1.97;100.00;100033.09;4981436;28;12350;-71
2021/12/27 02:46:04;;;;;;;;;38.25;29.50;;;;;1.95;100.00;100027.91;4982427;28;11648;-71
2021/12/27 02:48:40;;;;;;;;;35.75;31.50;;;;;2.01;100.00;100027.31;4982450;28;11604;-69
2021/12/27 02:51:08;;;;;;;;;32.25;25.00;;;;;2.01;100.00;100027.31;4978237;28;11707;-70
2021/12/27 02:53:34;;;;;;;;;28.75;22.25;;;;;2.02;100.00;100012.97;4979924;28;11715;-71
2021/12/27 02:56:04;;;;;;;;;28.50;24.50;;;;;2.05;100.00;100018.00;4980134;28;11613;-71
2021/12/27 02:58:30;;;;;;;;;32.25;24.25;;;;;1.99;100.00;100005.28;4982666;28;11589;-71
2021/12/27 03:01:13;;;;;;;;;35.25;34.75;;;;;2.02;100.00;100001.47;4982554;28;11617;-69
2021/12/27 03:03:41;;;;;;;;;33.75;28.25;;;;;2.04;100.00;100008.31;4997231;28;11636;-70
2021/12/27 03:06:08;;;;;;;;;30.25;26.25;;;;;2.06;100.00;100005.50;4982036;28;11739;-70
2021/12/27 03:08:36;;;;;;;;;35.75;28.75;;;;;2.09;100.00;100016.69;4983314;28;11700;-70
2021/12/27 03:11:05;;;;;;;;;32.50;25.00;;;;;2.10;100.00;100006.84;4979697;28;12081;-67
2021/12/27 03:13:38;;;;;;;;;26.00;22.75;;;;;2.10;100.00;100013.03;4976658;28;11604;-69
2021/12/27 03:16:10;;;;;;;;;28.25;23.75;;;;;2.13;100.00;100014.56;5001610;28;11585;-70
2021/12/27 03:18:39;;;;;;;;;29.75;28.00;;;;;2.12;100.00;100024.38;4984576;28;12489;-70
2021/12/27 03:21:07;;;;;;;;;38.50;31.00;;;;;2.14;100.00;100010.88;4985384;28;11749;-69
2021/12/27 03:23:35;;;;;;;;;28.50;24.75;;;;;2.15;100.00;100017.91;4988239;28;11596;-70
2021/12/27 03:26:02;;;;;;;;;28.75;25.25;;;;;2.16;100.00;100015.06;4985108;28;12455;-70
2021/12/27 03:28:30;;;;;;;;;21.50;18.25;;;;;2.21;100.00;100016.44;4984845;28;11609;-71
2021/12/27 03:30:59;;;;;;;;;32.50;28.75;;;;;2.22;100.00;100008.25;4986488;28;11765;-71
2021/12/27 03:33:26;;;;;;;;;31.50;24.75;;;;;2.20;100.00;100014.75;4985282;28;11605;-70
2021/12/27 03:36:02;;;;;;;;;22.00;18.25;;;;;2.26;100.00;100012.31;4988323;28;11622;-71
2021/12/27 03:38:33;;;;;;;;;27.50;23.50;;;;;2.27;100.00;100003.31;4986581;28;15948;-70
2021/12/27 03:41:01;;;;;;;;;21.75;16.25;;;;;2.31;100.00;99999.34;4985717;28;11607;-70
2021/12/27 03:43:28;;;;;;;;;18.25;15.50;;;;;2.33;100.00;100001.84;4984383;28;11678;-66
2021/12/27 03:45:54;;;;;;;;;32.50;29.00;;;;;2.34;100.00;99999.00;4986667;28;11744;-70
2021/12/27 03:48:21;;;;;;;;;28.00;28.00;;;;;2.33;100.00;99997.34;4985732;28;11600;-71
2021/12/27 03:50:47;;;;;;;;;32.25;29.25;;;;;2.32;100.00;99992.16;4985320;28;11779;-70
2021/12/27 03:53:14;;;;;;;;;23.25;22.50;;;;;2.30;100.00;99991.47;4987564;28;11697;-69
2021/12/27 03:55:40;;;;;;;;;24.50;22.50;;;;;2.32;100.00;99994.84;4987539;28;11754;-70
2021/12/27 03:58:22;;;;;;;;;27.00;25.25;;;;;2.35;100.00;99995.34;4980932;28;11762;-69
2021/12/27 04:03:29;;;;;;;;;22.00;20.25;;;;;2.40;100.00;99990.38;4981014;28;12121;-70
2021/12/27 04:05:57;;;;;;;;;26.00;22.75;;;;;2.39;100.00;99980.69;4995649;28;12415;-69
2021/12/27 04:08:24;;;;;;;;;23.75;21.00;;;;;2.41;100.00;99978.69;4994764;28;12423;-72
2021/12/27 04:10:51;;;;;;;;;31.25;26.50;;;;;2.40;100.00;99979.69;4994032;28;11737;-72
2021/12/27 04:13:21;;;;;;;;;25.50;23.50;;;;;2.38;100.00;99970.16;4979927;28;11637;-71
2021/12/27 04:15:48;;;;;;;;;30.00;24.00;;;;;2.36;100.00;99958.78;4978286;28;11764;-69
2021/12/27 04:18:16;;;;;;;;;28.75;20.50;;;;;2.40;100.00;99962.81;4979834;28;11607;-68
2021/12/27 04:20:43;;;;;;;;;24.75;22.00;;;;;2.38;100.00;99954.97;4979196;28;11701;-70
2021/12/27 04:23:09;;;;;;;;;15.25;12.75;;;;;2.43;100.00;99957.16;4981372;28;11773;-71
2021/12/27 04:25:36;;;;;;;;;24.50;20.50;;;;;2.42;100.00;99956.31;4994522;28;14311;-71
2021/12/27 04:28:02;;;;;;;;;27.25;21.25;;;;;2.42;100.00;99950.97;4978664;28;11596;-72
2021/12/27 04:30:29;;;;;;;;;29.00;24.25;;;;;2.45;100.00;99947.16;4994295;28;11747;-73
2021/12/27 04:32:56;;;;;;;;;23.25;20.25;;;;;2.41;100.00;99957.31;4980047;28;11610;-70
2021/12/27 04:35:27;;;;;;;;;22.75;18.50;;;;;2.46;100.00;99948.81;4977379;28;12343;-71
2021/12/27 04:37:53;;;;;;;;;30.00;22.50;;;;;2.46;100.00;99955.00;4977897;28;11679;-70
2021/12/27 04:40:22;;;;;;;;;17.50;16.50;;;;;2.50;100.00;99952.03;4981718;28;11622;-69
2021/12/27 04:42:54;;;;;;;;;22.25;21.50;;;;;2.50;100.00;99950.22;4979439;28;11655;-71
2021/12/27 04:45:20;;;;;;;;;25.25;22.50;;;;;2.46;100.00;99941.66;4980647;28;12282;-72
2021/12/27 04:47:47;;;;;;;;;34.00;28.00;;;;;2.47;100.00;99937.16;4978742;28;11581;-71
2021/12/27 04:50:14;;;;;;;;;27.50;24.75;;;;;2.46;100.00;99936.31;4980253;28;11664;-68
2021/12/27 04:52:41;;;;;;;;;20.75;20.75;;;;;2.51;100.00;99935.84;4978947;28;11617;-69
2021/12/27 04:55:09;;;;;;;;;18.75;18.00;;;;;2.47;100.00;99937.97;4980020;28;11629;-69
2021/12/27 04:57:35;;;;;;;;;21.75;21.50;;;;;2.53;100.00;99939.19;4995084;28;11699;-69
2021/12/27 05:00:04;;;;;;;;;21.50;19.75;;;;;2.55;100.00;99945.22;4962007;28;11625;-72
2021/12/27 05:02:31;;;;;;;;;16.00;16.00;;;;;2.55;100.00;99947.88;4976115;28;11893;-70
2021/12/27 05:04:57;;;;;;;;;28.25;22.25;;;;;2.57;100.00;99939.72;4980894;28;11748;-72
2021/12/27 05:07:24;;;;;;;;;34.25;26.00;;;;;2.58;100.00;99933.38;4979641;28;11661;-72
2021/12/27 05:09:50;;;;;;;;;25.50;21.25;;;;;2.57;100.00;99935.22;4979471;28;11754;-72
2021/12/27 05:12:17;;;;;;;;;22.50;20.25;;;;;2.58;100.00;99936.88;4978102;28;14222;-71
2021/12/27 05:14:43;;;;;;;;;31.00;26.75;;;;;2.63;100.00;99928.38;4978736;28;11706;-69
2021/12/27 05:17:09;;;;;;;;;21.25;18.75;;;;;2.57;100.00;99927.19;4979164;28;11709;-71
2021/12/27 05:19:40;;;;;;;;;23.00;20.75;;;;;2.57;100.00;99924.53;4980665;28;11744;-72
2021/12/27 05:22:07;;;;;;;;;26.50;23.00;;;;;2.62;100.00;99919.53;4977401;28;11638;-71
2021/12/27 05:24:33;;;;;;;;;33.25;25.75;;;;;2.56;100.00;99916.66;4978808;28;11684;-71
2021/12/27 05:27:00;;;;;;;;;29.25;24.50;;;;;2.58;100.00;99903.97;4979814;28;11619;-69
2021/12/27 05:29:26;;;;;;;;;33.25;31.00;;;;;2.57;100.00;99902.31;4978748;28;12316;-72
2021/12/27 05:31:57;;;;;;;;;27.25;22.75;;;;;2.60;100.00;99905.50;4978204;28;11606;-72
2021/12/27 05:34:32;;;;;;;;;31.50;25.50;;;;;2.60;100.00;99896.63;4993410;28;11668;-73
2021/12/27 05:36:58;;;;;;;;;32.25;24.50;;;;;2.62;100.00;99897.31;4979466;28;11826;-67
2021/12/27 05:39:25;;;;;;;;;24.25;24.25;;;;;2.62;100.00;99894.66;4994213;28;11596;-73
2021/12/27 05:41:51;;;;;;;;;39.25;29.50;;;;;2.62;100.00;99882.13;4981472;28;11608;-69
2021/12/27 05:44:18;;;;;;;;;27.75;23.75;;;;;2.70;100.00;99882.13;4994088;28;11719;-70
2021/12/27 05:46:45;;;;;;;;;22.50;19.00;;;;;2.69;100.00;99884.97;4978487;28;11601;-70
2021/12/27 05:49:14;;;;;;;;;34.50;30.25;;;;;2.64;100.00;99884.63;4978855;28;11618;-70
2021/12/27 05:51:43;;;;;;;;;26.50;23.25;;;;;2.64;100.00;99882.78;4976547;28;14264;-70
2021/12/27 05:54:11;;;;;;;;;26.25;22.75;;;;;2.73;100.00;99879.16;4960707;28;11648;-71
2021/12/27 05:56:38;;;;;;;;;23.75;19.75;;;;;2.75;100.00;99874.50;4976430;28;12547;-69
2021/12/27 05:59:05;;;;;;;;;30.50;27.00;;;;;2.73;100.00;99883.69;4993436;28;11628;-71
2021/12/27 06:01:31;;;;;;;;;22.25;21.50;;;;;2.74;100.00;99880.84;4976162;28;11702;-71
2021/12/27 06:03:59;;;;;;;;;23.25;21.25;;;;;2.80;100.00;99886.53;4978479;28;12343;-69
2021/12/27 06:06:26;;;;;;;;;24.50;22.25;;;;;2.78;100.00;99884.03;4975481;28;11690;-74
2021/12/27 06:08:53;;;;;;;;;13.50;13.00;;;;;2.79;100.00;99885.69;4976746;28;12363;-69
2021/12/27 06:11:20;;;;;;;;;20.75;18.75;;;;;2.83;100.00;99881.69;4976403;28;11580;-71
2021/12/27 06:13:46;;;;;;;;;22.25;20.00;;;;;2.86;100.00;99899.22;4994236;28;11733;-71
2021/12/27 06:16:13;;;;;;;;;27.75;20.50;;;;;2.83;100.00;99897.72;4992546;28;11673;-72
2021/12/27 06:18:40;;;;;;;;;26.50;21.75;;;;;2.87;100.00;99893.72;4977833;28;11598;-69
2021/12/27 06:21:07;;;;;;;;;16.25;15.00;;;;;2.91;100.00;99892.41;4994886;28;11547;-70
2021/12/27 06:23:37;;;;;;;;;24.00;19.75;;;;;2.89;100.00;99881.03;4981056;28;11681;-69
2021/12/27 06:26:04;;;;;;;;;28.25;21.25;;;;;2.91;100.00;99886.22;4992022;28;11601;-70
2021/12/27 06:28:32;;;;;;;;;20.00;19.25;;;;;2.90;100.00;99885.38;4993247;28;11613;-73
2021/12/27 06:30:59;;;;;;;;;21.25;21.00;;;;;2.93;100.00;99885.03;4977970;28;12404;-73
2021/12/27 06:33:25;;;;;;;;;23.75;20.25;;;;;2.96;100.00;99892.72;4993261;28;11602;-70
2021/12/27 06:35:52;;;;;;;;;27.75;19.00;;;;;2.98;100.00;99896.09;4978806;28;11620;-71
2021/12/27 06:38:20;;;;;;;;;13.50;13.00;;;;;2.98;100.00;99893.44;4976166;28;11628;-70
2021/12/27 06:40:50;;;;;;;;;18.25;18.25;;;;;3.01;100.00;99890.44;4977493;28;11601;-67
2021/12/27 06:43:17;;;;;;;;;25.75;16.00;;;;;3.05;100.00;99881.06;4977951;28;11719;-69
2021/12/27 06:45:44;;;;;;;;;27.25;21.75;;;;;3.01;100.00;99887.75;4977192;28;11693;-73
2021/12/27 06:48:11;;;;;;;;;28.75;23.00;;;;;3.08;100.00;99885.25;4977615;28;11691;-71
2021/12/27 06:50:38;;;;;;;;;19.50;17.75;;;;;3.09;100.00;99879.75;4978303;28;11782;-71
2021/12/27 06:53:04;;;;;;;;;19.50;17.00;;;;;3.13;100.00;99882.91;4981247;28;11528;-71
2021/12/27 06:55:31;;;;;;;;;28.50;24.50;;;;;3.12;100.00;99880.41;4982083;28;11680;-68
2021/12/27 06:57:57;;;;;;;;;22.25;20.00;;;;;3.14;100.00;99881.91;4981841;28;11740;-69
2021/12/27 07:00:24;;;;;;;;;22.25;15.25;;;;;3.16;100.00;99879.06;4982269;28;11546;-71
2021/12/27 07:02:50;;;;;;;;;24.50;17.00;;;;;3.17;100.00;99873.56;4980597;28;11536;-72
2021/12/27 07:05:18;;;;;;;;;24.00;20.00;;;;;3.17;100.00;99884.25;4995411;28;11546;-70
2021/12/27 07:07:44;;;;;;;;;28.00;24.50;;;;;3.15;100.00;99885.44;4987850;28;11548;-71
2021/12/27 07:10:14;;;;;;;;;27.00;21.50;;;;;3.20;100.00;99885.75;5003453;28;12494;-71
2021/12/27 07:12:41;;;;;;;;;20.00;18.75;;;;;3.22;100.00;99895.31;4980086;28;12331;-71
2021/12/27 07:15:08;;;;;;;;;18.25;13.50;;;;;3.25;100.00;99888.81;4980445;28;11525;-68
2021/12/27 07:17:34;;;;;;;;;25.50;20.75;;;;;3.24;100.00;99884.47;4994295;28;11576;-71
2021/12/27 07:20:02;;;;;;;;;25.00;20.75;;;;;3.25;100.00;99886.97;4980746;28;11531;-71
2021/12/27 07:22:28;;;;;;;;;20.75;19.25;;;;;3.29;100.00;99882.13;4981128;28;11584;-70
2021/12/27 07:24:55;;;;;;;;;19.50;15.25;;;;;3.32;100.00;99882.63;4980870;28;11525;-71
2021/12/27 07:27:21;;;;;;;;;26.00;22.25;;;;;3.35;100.00;99886.78;4993789;28;11718;-71
2021/12/27 07:29:48;;;;;;;;;14.25;13.25;;;;;3.38;100.00;99892.66;4980484;28;12445;-71
2021/12/27 07:32:14;;;;;;;;;17.00;16.25;;;;;3.44;100.00;99890.31;4983945;28;11667;-70
2021/12/27 07:34:41;;;;;;;;;29.25;27.00;;;;;3.41;100.00;99896.81;4996276;28;11557;-71
2021/12/27 07:37:07;;;;;;;;;26.00;19.75;;;;;3.46;100.00;99890.97;4993575;28;11675;-71
2021/12/27 07:39:34;;;;;;;;;21.25;19.50;;;;;3.47;100.00;99892.63;4979255;28;11678;-70
2021/12/27 07:42:01;;;;;;;;;22.75;19.25;;;;;3.47;100.00;99887.28;4978467;28;11666;-69
2021/12/27 07:44:27;;;;;;;;;23.25;21.75;;;;;3.50;100.00;99886.97;4981090;28;11631;-69
2021/12/27 07:46:54;;;;;;;;;14.25;14.00;;;;;3.51;100.00;99885.97;4978615;28;11709;-70
2021/12/27 07:49:20;;;;;;;;;16.75;15.00;;;;;3.54;100.00;99885.63;4979600;28;11520;-71
2021/12/27 07:51:47;;;;;;;;;15.00;14.00;;;;;3.56;100.00;99887.13;4979492;28;11674;-70
2021/12/27 07:54:14;;;;;;;;;21.00;16.00;;;;;3.57;100.00;99887.97;4978966;28;11515;-69
2021/12/27 07:56:40;;;;;;;;;27.75;22.75;;;;;3.61;100.00;99883.97;4963520;28;11555;-71
2021/12/27 07:59:07;;;;;;;;;25.25;20.50;;;;;3.62;100.00;99885.63;4995372;28;11719;-70
2021/12/27 08:01:36;;;;;;;;;27.25;24.25;;;;;3.66;100.00;99882.44;4992457;28;11533;-71
2021/12/27 08:04:05;;;;;;;;;24.75;21.00;;;;;3.68;100.00;99876.91;4981891;28;11593;-70
2021/12/27 08:06:32;;;;;;;;;22.50;20.00;;;;;3.67;100.00;99880.59;4978537;28;11572;-71
2021/12/27 08:08:59;;;;;;;;;21.00;19.00;;;;;3.69;100.00;99879.44;4979866;28;11543;-72
2021/12/27 08:11:26;;;;;;;;;28.75;24.75;;;;;3.71;100.00;99873.91;4980622;28;11755;-71
2021/12/27 08:13:53;;;;;;;;;18.00;16.50;;;;;3.74;100.00;99870.09;4981259;28;11613;-71
2021/12/27 08:16:24;;;;;;;;;23.00;22.25;;;;;3.76;100.00;99868.06;4979355;28;12311;-70
2021/12/27 08:18:51;;;;;;;;;31.75;26.00;;;;;3.76;100.00;99863.56;4981792;28;11655;-70
2021/12/27 08:21:20;;;;;;;;;22.75;17.50;;;;;3.78;100.00;99866.06;4984182;28;11610;-69
2021/12/27 08:23:46;;;;;;;;;17.50;17.50;;;;;3.78;100.00;99869.56;4979858;28;11637;-71
2021/12/27 08:26:13;;;;;;;;;25.50;20.50;;;;;3.82;100.00;99872.75;4981283;28;11644;-71
2021/12/27 08:28:41;;;;;;;;;25.75;22.75;;;;;3.82;100.00;99880.78;4979342;28;11619;-72
2021/12/27 08:31:07;;;;;;;;;22.75;18.50;;;;;3.87;100.00;99876.56;4986883;28;12231;-70
2021/12/27 08:33:34;;;;;;;;;23.00;18.50;;;;;3.90;100.00;99873.56;4998498;28;11531;-69
2021/12/27 08:36:01;;;;;;;;;27.50;24.75;;;;;3.88;100.00;99877.41;4976447;28;11527;-69
2021/12/27 08:38:27;;;;;;;;;24.00;17.50;;;;;3.89;100.00;99876.41;4992198;28;11578;-70
2021/12/27 08:40:54;;;;;;;;;23.00;20.25;;;;;3.87;100.00;99879.25;4979916;28;11526;-70
2021/12/27 08:43:20;;;;;;;;;33.50;25.00;;;;;3.92;100.00;99881.41;4978812;28;11564;-71
2021/12/27 08:45:47;;;;;;;;;26.25;18.75;;;;;3.94;100.00;99880.22;4993478;28;11676;-70
2021/12/27 08:48:13;;;;;;;;;22.50;17.25;;;;;3.95;100.00;99884.59;4978411;28;11695;-69
2021/12/27 08:50:41;;;;;;;;;31.25;24.00;;;;;3.97;100.00;99879.09;4980254;28;11717;-71
2021/12/27 08:53:12;;;;;;;;;24.50;20.25;;;;;4.00;100.00;99874.22;4977417;28;11542;-68
2021/12/27 08:55:39;;;;;;;;;27.25;21.25;;;;;3.97;100.00;99876.41;4980560;28;11536;-70
2021/12/27 08:58:06;;;;;;;;;22.00;21.25;;;;;4.01;100.00;99869.69;4983476;28;11576;-70
2021/12/27 09:00:33;;;;;;;;;28.25;25.00;;;;;4.00;100.00;99876.06;4985371;28;11678;-69
2021/12/27 09:03:00;;;;;;;;;21.00;21.00;;;;;4.01;100.00;99865.19;5000165;28;11545;-70
2021/12/27 09:05:26;;;;;;;;;24.75;21.75;;;;;4.03;100.00;99864.16;4984314;28;11532;-71
2021/12/27 09:07:53;;;;;;;;;20.50;19.25;;;;;4.01;100.00;99854.47;4985362;28;11552;-71
2021/12/27 09:10:19;;;;;;;;;22.50;19.50;;;;;4.06;100.00;99858.47;5001760;28;11549;-70
2021/12/27 09:12:46;;;;;;;;;16.25;16.00;;;;;4.21;100.00;99865.63;4979688;28;12301;-71
2021/12/27 09:15:14;;;;;;;;;19.25;17.50;;;;;4.17;100.00;99860.78;4986715;28;11694;-71
2021/12/27 09:17:41;;;;;;;;;19.00;17.00;;;;;4.14;100.00;99866.47;4985449;28;11550;-70
2021/12/27 09:20:08;;;;;;;;;23.00;17.25;;;;;4.15;100.00;99862.78;4987889;28;11547;-71
2021/12/27 09:22:36;;;;;;;;;22.00;21.00;;;;;4.13;100.00;99848.72;5002749;28;11611;-72
2021/12/27 09:25:04;;;;;;;;;26.00;20.25;;;;;4.14;100.00;99858.44;4987131;28;11547;-72
2021/12/27 09:27:31;;;;;;;;;17.50;17.50;;;;;4.17;100.00;99856.25;4985544;28;11653;-72
2021/12/27 09:29:57;;;;;;;;;22.75;22.00;;;;;4.15;100.00;99852.91;4987057;28;12167;-71
2021/12/27 09:32:24;;;;;;;;;21.75;17.00;;;;;4.20;100.00;99857.75;5001782;28;11626;-71
2021/12/27 09:34:50;;;;;;;;;25.25;16.50;;;;;4.18;100.00;99844.53;4990508;28;11558;-72
2021/12/27 09:37:17;;;;;;;;;23.25;21.75;;;;;4.24;100.00;99851.91;4992725;28;11541;-71
2021/12/27 09:39:43;;;;;;;;;25.00;19.00;;;;;4.34;100.00;99854.34;4997284;28;11525;-71
2021/12/27 09:42:10;;;;;;;;;34.50;28.25;;;;;4.31;100.00;99852.03;4995956;28;11694;-71
2021/12/27 09:44:37;;;;;;;;;20.75;18.25;;;;;4.33;100.00;99852.69;4993387;28;11697;-71
2021/12/27 09:47:03;;;;;;;;;31.25;21.75;;;;;4.33;100.00;99840.13;4985004;28;12343;-71
2021/12/27 09:49:30;;;;;;;;;25.25;22.25;;;;;4.33;100.00;99834.78;4987427;28;11982;-70
2021/12/27 09:51:59;;;;;;;;;25.50;25.50;;;;;4.31;100.00;99836.78;4999555;28;12325;-71
2021/12/27 09:54:28;;;;;;;;;25.75;24.50;;;;;4.35;100.00;99841.78;5000579;28;11545;-71
2021/12/27 09:56:55;;;;;;;;;22.50;20.00;;;;;4.40;100.00;99839.44;4984050;28;11550;-72
2021/12/27 09:59:22;;;;;;;;;27.75;25.50;;;;;4.42;100.00;99829.38;4985122;28;11652;-72
2021/12/27 10:01:50;;;;;;;;;23.00;20.75;;;;;4.42;100.00;99829.38;4998509;28;12296;-72
2021/12/27 10:04:16;;;;;;;;;30.75;30.75;;;;;4.40;100.00;99834.91;4986801;28;11626;-71
2021/12/27 10:06:43;;;;;;;;;24.50;21.25;;;;;4.42;100.00;99829.38;4985820;28;11549;-70
2021/12/27 10:09:14;;;;;;;;;24.50;24.00;;;;;4.42;100.00;99830.19;4986419;28;11611;-71
2021/12/27 10:11:44;;;;;;;;;23.00;22.00;;;;;4.47;100.00;99835.06;4964599;28;11537;-71
2021/12/27 10:14:14;;;;;;;;;26.75;23.75;;;;;4.42;100.00;99826.69;4986161;28;11509;-71
2021/12/27 10:16:52;;;;;;;;;30.75;26.75;;;;;4.50;100.00;99827.50;4984819;28;11570;-70
2021/12/27 10:19:20;;;;;;;;;25.00;22.00;;;;;4.52;100.00;99820.13;4983985;28;11739;-71
2021/12/27 10:21:50;;;;;;;;;23.00;15.75;;;;;4.55;100.00;99827.81;4984639;28;11551;-71
2021/12/27 10:24:27;;;;;;;;;26.00;20.75;;;;;4.56;100.00;99821.44;5007324;28;11647;-70
2021/12/27 10:27:00;;;;;;;;;19.50;16.25;;;;;4.58;100.00;99823.94;5002102;28;11520;-70
2021/12/27 10:29:29;;;;;;;;;27.25;21.75;;;;;4.87;100.00;99815.22;4996733;28;11606;-72
2021/12/27 10:32:10;;;;;;;;;27.50;22.50;;;;;4.71;100.00;99815.31;5001479;28;11642;-69
2021/12/27 10:34:43;;;;;;;;;20.75;19.50;;;;;4.73;100.00;99808.78;5003000;28;11593;-71
2021/12/27 10:37:15;;;;;;;;;36.25;26.00;;;;;4.72;100.00;99801.75;5010681;28;11663;-69
2021/12/27 10:39:49;;;;;;;;;23.75;19.00;;;;;4.73;100.00;99800.75;5002388;28;11650;-71
2021/12/27 10:42:19;;;;;;;;;24.25;22.25;;;;;4.75;100.00;99790.69;4993283;28;11533;-71
2021/12/27 10:44:46;;;;;;;;;31.25;22.50;;;;;6.27;100.00;99785.06;5002300;28;12307;-73
2021/12/27 10:47:23;;;;;;;;;25.75;24.50;;;;;5.20;100.00;99778.25;4984859;28;11610;-71
2021/12/27 10:49:51;;;;;;;;;25.75;22.75;;;;;5.03;100.00;99777.56;4987471;28;11530;-70
2021/12/27 10:52:18;;;;;;;;;33.00;28.75;;;;;4.88;100.00;99777.50;5002564;28;11672;-70
2021/12/27 10:54:45;;;;;;;;;21.00;20.75;;;;;4.87;100.00;99766.94;5001564;28;11547;-70
2021/12/27 10:57:12;;;;;;;;;26.50;25.00;;;;;4.90;100.00;99770.09;4986012;28;11651;-70
2021/12/27 10:59:39;;;;;;;;;24.00;23.00;;;;;4.90;100.00;99771.94;4985927;28;11533;-71
2021/12/27 11:02:10;;;;;;;;;21.75;20.75;;;;;4.89;100.00;99772.97;4986835;28;11647;-71
2021/12/27 11:04:38;;;;;;;;;24.25;22.00;;;;;4.96;100.00;99787.34;4977638;28;11682;-70
2021/12/27 11:07:05;;;;;;;;;19.00;18.00;;;;;4.97;100.00;99780.97;5000346;28;11516;-70
2021/12/27 11:09:34;;;;;;;;;28.75;26.25;;;;;4.92;100.00;99775.28;4986662;28;12295;-71
2021/12/27 11:12:02;;;;;;;;;24.50;22.00;;;;;4.97;100.00;99791.72;4984453;28;11642;-71
2021/12/27 11:14:28;;;;;;;;;22.50;17.75;;;;;4.99;100.00;99776.25;4984987;28;11694;-71
2021/12/27 11:16:55;;;;;;;;;23.75;18.25;;;;;5.00;100.00;99772.56;5000655;28;11570;-70
2021/12/27 11:19:21;;;;;;;;;23.00;20.50;;;;;5.03;100.00;99785.63;4985190;28;11662;-71
2021/12/27 11:21:49;;;;;;;;;21.75;18.50;;;;;5.01;100.00;99763.50;4986056;28;11542;-71